Time;durP1;ratioP1;P1;durP2;ratioP2;P2;SDS_P1;SDS_P2;PMS_P1;PMS_P2;Temp;Humidity;BMP_temperature;BMP_pressure;BME280_temperature;BME280_humidity;BME280_pressure;Samples;Min_cycle;Max_cycle;Signal;HPM_P1;HPM_P2
2023/04/29 00:01:08;;;;;;;4.60;0.90;;;;;;;8.05;100.00;100324.94;105844;1254;66931;-51
2023/04/29 00:03:35;;;;;;;1.80;0.80;;;;;;;8.04;100.00;100328.21;105813;1254;75309;-51
2023/04/29 00:06:03;;;;;;;5.40;1.00;;;;;;;8.03;100.00;100327.02;105704;1254;63452;-51
2023/04/29 00:08:31;;;;;;;1.70;1.30;;;;;;;8.01;100.00;100326.70;105856;1259;61883;-51
2023/04/29 00:10:58;;;;;;;4.70;1.20;;;;;;;8.00;100.00;100324.66;105792;1258;75522;-51
2023/04/29 00:13:25;;;;;;;1.60;1.00;;;;;;;7.98;100.00;100323.30;105689;1254;66855;-51
2023/04/29 00:15:52;;;;;;;9.70;1.10;;;;;;;7.95;100.00;100326.23;105825;1254;74586;-51
2023/04/29 00:18:19;;;;;;;2.20;1.10;;;;;;;7.92;100.00;100320.25;105832;1254;63382;-51
2023/04/29 00:20:46;;;;;;;4.00;1.00;;;;;;;7.90;100.00;100324.75;105796;1254;61991;-51
2023/04/29 00:23:13;;;;;;;1.20;1.10;;;;;;;7.87;100.00;100324.77;105751;1257;74579;-50
2023/04/29 00:25:40;;;;;;;1.80;1.30;;;;;;;7.82;100.00;100320.69;105781;1257;66830;-51
2023/04/29 00:28:07;;;;;;;1.50;1.10;;;;;;;7.79;100.00;100318.84;105660;1254;73558;-51
2023/04/29 00:30:34;;;;;;;3.80;1.30;;;;;;;7.76;100.00;100317.48;105655;1259;62644;-51
2023/04/29 00:33:02;;;;;;;1.10;1.10;;;;;;;7.72;100.00;100320.44;105821;1254;62747;-51
2023/04/29 00:35:30;;;;;;;1.80;1.00;;;;;;;7.68;100.00;100315.65;105832;1253;75215;-51
2023/04/29 00:37:57;;;;;;;1.60;1.20;;;;;;;7.64;100.00;100314.66;105752;1257;66065;-51
2023/04/29 00:40:24;;;;;;;1.20;1.10;;;;;;;7.62;100.00;100314.17;105661;1254;74980;-51
2023/04/29 00:42:51;;;;;;;4.30;1.60;;;;;;;7.59;100.00;100315.75;105790;1254;62732;-50
2023/04/29 00:45:18;;;;;;;4.00;1.50;;;;;;;7.57;100.00;100317.98;105686;1254;63336;-51
2023/04/29 00:47:45;;;;;;;1.40;1.30;;;;;;;7.55;100.00;100319.05;105665;1256;75254;-51
2023/04/29 00:50:13;;;;;;;1.80;1.20;;;;;;;7.51;100.00;100312.70;105662;1254;66116;-51
2023/04/29 00:52:40;;;;;;;2.60;1.40;;;;;;;7.48;100.00;100315.31;105642;1258;74900;-51
2023/04/29 00:55:07;;;;;;;2.20;1.30;;;;;;;7.46;100.00;100313.96;105673;1259;63496;-51
2023/04/29 00:57:35;;;;;;;3.60;1.10;;;;;;;7.42;100.00;100308.65;105699;1259;61589;-51
2023/04/29 01:00:03;;;;;;;6.50;1.20;;;;;;;7.40;100.00;100309.88;105745;1257;74642;-51
2023/04/29 01:02:30;;;;;;;4.10;1.00;;;;;;;7.37;100.00;100311.45;105715;1254;66921;-51
2023/04/29 01:04:57;;;;;;;6.10;1.30;;;;;;;7.36;100.00;100312.14;105717;1259;74273;-51
2023/04/29 01:07:36;;;;;;;4.50;1.00;;;;;;;7.33;100.00;100312.67;105758;1254;62883;-51
2023/04/29 01:10:21;;;;;;;3.20;1.20;;;;;;;7.30;100.00;100315.95;105712;1253;62665;-50
2023/04/29 01:13:08;;;;;;;5.80;1.10;;;;;;;7.28;100.00;100316.66;105691;1254;75280;-52
2023/04/29 01:16:02;;;;;;;3.80;1.70;;;;;;;7.27;100.00;100326.62;105671;1259;66895;-56
2023/04/29 01:18:40;;;;;;;4.10;1.30;;;;;;;7.25;100.00;100331.10;105667;1254;74917;-52
2023/04/29 01:21:07;;;;;;;4.50;1.30;;;;;;;7.25;100.00;100333.48;105577;1254;62395;-52
2023/04/29 01:23:35;;;;;;;7.10;1.30;;;;;;;7.24;100.00;100339.52;105708;1254;62153;-52
2023/04/29 01:26:02;;;;;;;4.30;1.20;;;;;;;7.23;100.00;100339.87;105781;1259;75642;-53
2023/04/29 01:28:48;;;;;;;3.00;1.40;;;;;;;7.22;100.00;100332.16;105784;1260;67024;-51
2023/04/29 01:31:27;;;;;;;1.30;1.20;;;;;;;7.22;100.00;100332.33;105659;1259;73844;-51
2023/04/29 01:34:07;;;;;;;2.50;1.40;;;;;;;7.20;100.00;100334.05;105708;1254;64718;-51
2023/04/29 01:36:43;;;;;;;3.70;1.40;;;;;;;7.19;100.00;100339.54;105700;1254;63057;-51
2023/04/29 01:39:11;;;;;;;4.80;1.70;;;;;;;7.19;100.00;100337.99;105678;1254;76221;-51
2023/04/29 01:41:54;;;;;;;2.70;1.50;;;;;;;7.17;100.00;100345.04;105798;1254;65132;-51
2023/04/29 01:44:27;;;;;;;2.30;1.30;;;;;;;7.17;100.00;100349.69;105661;1254;74463;-50
2023/04/29 01:46:55;;;;;;;3.80;1.40;;;;;;;7.16;100.00;100345.74;105602;1257;63513;-51
2023/04/29 01:49:28;;;;;;;3.00;1.60;;;;;;;7.14;100.00;100339.41;105663;1259;61714;-50
2023/04/29 01:51:56;;;;;;;2.60;1.70;;;;;;;7.11;100.00;100343.89;105747;1254;76354;-50
2023/04/29 01:54:24;;;;;;;3.90;1.50;;;;;;;7.10;100.00;100339.77;109519;1254;66118;-52
2023/04/29 01:56:51;;;;;;;1.40;1.30;;;;;;;7.10;100.00;100339.77;109448;1254;74578;-52
2023/04/29 01:59:26;;;;;;;2.40;1.10;;;;;;;7.09;100.00;100341.15;109539;1253;61453;-52
2023/04/29 02:02:35;;;;;;;7.40;1.50;;;;;;;7.07;100.00;100344.59;108894;1259;62179;-52
2023/04/29 02:05:10;;;;;;;2.20;1.50;;;;;;;7.05;100.00;100351.29;108921;1259;76266;-52
2023/04/29 02:07:41;;;;;;;3.90;1.50;;;;;;;7.05;100.00;100349.06;109229;1254;65628;-52
2023/04/29 02:10:08;;;;;;;3.80;1.80;;;;;;;7.04;100.00;100347.36;109514;1253;74857;-52
2023/04/29 02:12:36;;;;;;;5.10;1.80;;;;;;;7.02;100.00;100343.77;109430;1257;61559;-52
2023/04/29 02:15:03;;;;;;;3.70;1.70;;;;;;;7.00;100.00;100349.61;109552;1253;61224;-52
2023/04/29 02:21:00;;;;;;;4.30;1.70;;;;;;;7.00;100.00;100319.75;103566;1286;601252;-50
2023/04/29 02:23:28;;;;;;;1.90;1.40;;;;;;;6.95;100.00;100331.98;104874;1270;62151;-51
2023/04/29 02:25:55;;;;;;;2.80;1.50;;;;;;;6.93;100.00;100330.42;105150;1270;61873;-51
2023/04/29 02:28:23;;;;;;;1.90;1.30;;;;;;;6.89;100.00;100328.89;105212;1267;73016;-51
2023/04/29 02:30:50;;;;;;;4.90;1.30;;;;;;;6.87;100.00;100326.68;105159;1261;67578;-51
2023/04/29 02:33:17;;;;;;;3.10;2.30;;;;;;;6.83;100.00;100322.59;105150;1269;74013;-51
2023/04/29 02:35:45;;;;;;;2.70;1.60;;;;;;;6.79;100.00;100317.27;105108;1264;188529;-51
2023/04/29 02:38:12;;;;;;;1.80;1.60;;;;;;;6.77;100.00;100317.83;105303;1263;60744;-51
2023/04/29 02:40:43;;;;;;;8.30;1.70;;;;;;;6.75;100.00;100317.65;105232;1264;73466;-51
2023/04/29 02:43:10;;;;;;;3.80;1.20;;;;;;;6.73;100.00;100319.04;105307;1261;66499;-51
2023/04/29 02:45:38;;;;;;;4.20;1.60;;;;;;;6.70;100.00;100321.96;105274;1264;75179;-51
2023/04/29 02:48:05;;;;;;;2.70;1.60;;;;;;;6.67;100.00;100328.66;105230;1260;64728;-50
2023/04/29 02:50:33;;;;;;;6.30;1.50;;;;;;;6.66;100.00;100325.40;105283;1266;62787;-51
2023/04/29 02:53:00;;;;;;;2.60;1.40;;;;;;;6.65;100.00;100331.58;105299;1263;75627;-51
2023/04/29 02:55:28;;;;;;;6.00;2.00;;;;;;;6.64;100.00;100329.88;105249;1261;67442;-51
2023/04/29 02:57:57;;;;;;;3.20;1.50;;;;;;;6.62;100.00;100329.02;105214;1263;75370;-50
2023/04/29 03:00:25;;;;;;;5.90;1.80;;;;;;;6.61;100.00;100334.69;105196;1261;64095;-51
2023/04/29 03:02:52;;;;;;;1.30;1.10;;;;;;;6.62;100.00;100339.15;105240;1264;62117;-51
2023/04/29 03:05:19;;;;;;;5.00;1.90;;;;;;;6.61;100.00;100337.78;105247;1264;75298;-51
2023/04/29 03:07:46;;;;;;;1.80;1.40;;;;;;;6.61;100.00;100341.73;105244;1267;66957;-52
2023/04/29 03:10:13;;;;;;;1.80;1.40;;;;;;;6.64;100.00;100337.59;105236;1261;73944;-54
2023/04/29 03:12:40;;;;;;;3.70;1.60;;;;;;;6.65;100.00;100332.44;105299;1261;62363;-55
2023/04/29 03:15:09;;;;;;;3.50;1.40;;;;;;;6.67;100.00;100333.46;105272;1258;61093;-52
2023/04/29 03:17:36;;;;;;;3.20;1.60;;;;;;;6.69;100.00;100332.25;105148;1268;74233;-55
2023/04/29 03:20:05;;;;;;;4.60;1.40;;;;;;;6.70;100.00;100334.32;105284;1264;66564;-54
2023/04/29 03:22:32;;;;;;;0.90;0.90;;;;;;;6.72;100.00;100334.48;105220;1261;74132;-54
2023/04/29 03:24:59;;;;;;;7.00;1.60;;;;;;;6.73;100.00;100337.39;105183;1260;62858;-52
2023/04/29 03:27:26;;;;;;;2.50;1.70;;;;;;;6.74;100.00;100341.33;105227;1265;61765;-52
2023/04/29 03:29:54;;;;;;;3.10;1.50;;;;;;;6.75;100.00;100346.48;105202;1264;75719;-52
2023/04/29 03:32:21;;;;;;;2.80;1.20;;;;;;;6.76;100.00;100342.01;105215;1260;67563;-52
2023/04/29 03:34:49;;;;;;;1.80;1.60;;;;;;;6.79;100.00;100342.51;105190;1264;75237;-52
2023/04/29 03:37:26;;;;;;;2.10;1.20;;;;;;;6.81;100.00;100351.06;105189;1261;63089;-50
2023/04/29 03:39:59;;;;;;;2.40;1.30;;;;;;;6.81;100.00;100349.36;105201;1261;63242;-51
2023/04/29 03:42:26;;;;;;;1.50;1.20;;;;;;;6.83;100.00;100353.64;105207;1269;75378;-50
2023/04/29 03:44:53;;;;;;;2.00;1.00;;;;;;;6.85;100.00;100360.83;105171;1267;66807;-51
2023/04/29 03:47:20;;;;;;;3.40;1.50;;;;;;;6.86;100.00;100358.60;105184;1261;73512;-51
2023/04/29 03:49:48;;;;;;;2.90;1.30;;;;;;;6.88;100.00;100359.27;105178;1260;62512;-50
2023/04/29 03:52:15;;;;;;;5.00;1.60;;;;;;;6.90;100.00;100356.85;105180;1266;62579;-51
2023/04/29 03:54:43;;;;;;;6.60;1.40;;;;;;;6.93;100.00;100362.33;105139;1267;73522;-51
2023/04/29 03:57:10;;;;;;;1.20;1.10;;;;;;;6.96;100.00;100361.48;105156;1267;65221;-53
2023/04/29 03:59:37;;;;;;;1.80;1.40;;;;;;;6.96;100.00;100357.52;105184;1265;75956;-51
2023/04/29 04:02:05;;;;;;;3.20;1.40;;;;;;;6.97;100.00;100358.89;105180;1267;62595;-51
2023/04/29 04:04:33;;;;;;;1.90;1.20;;;;;;;6.98;100.00;100360.61;105232;1264;61379;-51
2023/04/29 04:07:00;;;;;;;4.40;1.20;;;;;;;7.00;100.00;100363.67;105186;1261;74406;-51
2023/04/29 04:09:30;;;;;;;4.20;1.40;;;;;;;7.02;100.00;100364.87;105552;1258;67461;-51
2023/04/29 04:11:57;;;;;;;1.80;1.10;;;;;;;7.04;100.00;100364.86;105261;1263;75750;-51
2023/04/29 04:14:24;;;;;;;1.80;0.80;;;;;;;7.05;100.00;100373.61;105576;1262;62862;-51
2023/04/29 04:16:51;;;;;;;2.80;1.10;;;;;;;7.05;100.00;100380.48;105499;1262;61982;-51
2023/04/29 04:19:19;;;;;;;2.50;1.30;;;;;;;7.05;100.00;100386.48;105513;1258;74586;-51
2023/04/29 04:21:46;;;;;;;2.50;1.20;;;;;;;7.06;100.00;100389.04;105514;1262;66846;-53
2023/04/29 04:24:13;;;;;;;4.00;1.10;;;;;;;7.07;100.00;100392.48;105482;1257;74463;-52
2023/04/29 04:26:41;;;;;;;3.10;1.40;;;;;;;7.06;100.00;100395.55;105518;1257;60737;-52
2023/04/29 04:29:20;;;;;;;2.80;1.20;;;;;;;7.08;100.00;100396.08;105462;1257;62922;-53
2023/04/29 04:32:01;;;;;;;6.50;1.80;;;;;;;7.08;100.00;100398.64;105484;1257;75327;-56
2023/04/29 04:34:28;;;;;;;1.30;1.20;;;;;;;7.11;100.00;100400.35;105253;1259;68217;-53
2023/04/29 04:36:56;;;;;;;2.90;1.40;;;;;;;7.13;100.00;100402.55;105002;1259;74373;-52
2023/04/29 04:39:24;;;;;;;3.30;1.40;;;;;;;7.16;100.00;100412.84;105416;1262;61473;-56
2023/04/29 04:41:52;;;;;;;2.10;1.40;;;;;;;7.17;100.00;100413.34;105588;1257;60641;-51
2023/04/29 04:44:19;;;;;;;1.70;1.30;;;;;;;7.20;100.00;100417.64;105541;1260;74800;-52
2023/04/29 04:47:19;;;;;;;2.00;1.30;;;;;;;7.24;100.00;100415.40;105418;1262;66937;-52
2023/04/29 04:50:03;;;;;;;5.00;1.10;;;;;;;7.27;100.00;100421.89;105560;1260;75479;-50
2023/04/29 04:52:30;;;;;;;4.60;1.20;;;;;;;7.30;100.00;100427.37;105283;1261;61612;-51
2023/04/29 04:55:11;;;;;;;2.30;1.10;;;;;;;7.34;100.00;100430.44;105513;1257;62844;-51
2023/04/29 04:57:43;;;;;;;1.50;1.20;;;;;;;7.39;100.00;100436.77;105478;1262;75631;-51
2023/04/29 05:00:12;;;;;;;2.20;1.00;;;;;;;7.42;100.00;100438.45;105544;1257;66445;-51
2023/04/29 05:02:39;;;;;;;6.50;1.80;;;;;;;7.48;100.00;100435.70;105505;1260;74416;-51
2023/04/29 05:05:07;;;;;;;1.90;1.70;;;;;;;7.56;100.00;100443.88;105444;1262;61981;-51
2023/04/29 05:07:35;;;;;;;2.20;1.30;;;;;;;7.62;100.00;100441.61;105516;1258;61537;-51
2023/04/29 05:10:05;;;;;;;6.60;2.40;;;;;;;7.66;100.00;100449.99;105499;1262;75658;-51
2023/04/29 05:12:34;;;;;;;4.00;2.40;;;;;;;7.68;100.00;100449.98;105534;1264;67136;-51
2023/04/29 05:15:03;;;;;;;1.30;1.00;;;;;;;7.70;100.00;100453.58;105547;1257;75100;-51
2023/04/29 05:17:30;;;;;;;7.00;3.20;;;;;;;7.75;100.00;100452.69;105473;1262;62706;-51
2023/04/29 05:19:58;;;;;;;4.80;3.00;;;;;;;7.86;100.00;100459.99;105499;1262;61185;-51
2023/04/29 05:22:25;;;;;;;4.60;2.00;;;;;;;7.95;100.00;100463.20;105489;1256;75416;-51
2023/04/29 05:24:54;;;;;;;3.60;2.60;;;;;;;8.05;100.00;100466.56;105527;1257;66518;-52
2023/04/29 05:27:21;;;;;;;2.50;1.90;;;;;;;8.13;100.00;100475.09;105548;1257;74656;-51
2023/04/29 05:29:48;;;;;;;3.10;1.30;;;;;;;8.24;100.00;100475.02;105498;1260;63081;-52
2023/04/29 05:32:17;;;;;;;4.40;1.30;;;;;;;8.37;100.00;100480.91;105540;1262;61765;-53
2023/04/29 05:34:44;;;;;;;1.60;1.20;;;;;;;8.49;100.00;100489.60;105540;1257;74483;-52
2023/04/29 05:37:11;;;;;;;1.80;0.90;;;;;;;8.57;100.00;100497.27;105553;1257;66985;-52
2023/04/29 05:39:52;;;;;;;7.60;1.20;;;;;;;8.60;100.00;100507.73;105671;1259;75320;-51
2023/04/29 05:42:20;;;;;;;2.80;1.50;;;;;;;8.68;100.00;100506.29;105740;1254;61572;-52
2023/04/29 05:44:50;;;;;;;3.70;1.10;;;;;;;8.80;100.00;100510.30;105684;1258;62827;-53
2023/04/29 05:47:17;;;;;;;3.20;1.30;;;;;;;8.85;100.00;100518.86;105905;1257;75670;-52
2023/04/29 05:49:44;;;;;;;1.80;0.80;;;;;;;8.96;100.00;100520.29;105654;1253;66653;-53
2023/04/29 05:52:11;;;;;;;4.60;1.20;;;;;;;9.10;100.00;100519.27;105814;1257;74379;-53
2023/04/29 05:54:43;;;;;;;2.40;1.00;;;;;;;9.27;100.00;100527.70;105834;1253;63028;-53
2023/04/29 05:57:11;;;;;;;2.00;1.00;;;;;;;9.42;100.00;100528.38;105705;1256;61805;-53
2023/04/29 05:59:38;;;;;;;1.80;0.90;;;;;;;9.54;100.00;100540.81;105680;1257;75684;-53
2023/04/29 06:02:05;;;;;;;3.90;0.80;;;;;;;9.63;100.00;100546.55;105681;1254;67632;-53
2023/04/29 06:04:35;;;;;;;2.70;0.90;;;;;;;9.77;100.00;100557.05;105882;1253;73736;-53
2023/04/29 06:07:18;;;;;;;2.70;1.20;;;;;;;9.95;100.00;100560.42;105670;1253;62174;-53
2023/04/29 06:10:09;;;;;;;3.70;0.90;;;;;;;10.03;100.00;100571.70;105484;1253;62733;-52
2023/04/29 06:12:39;;;;;;;5.80;1.40;;;;;;;10.02;100.00;100589.64;105890;1253;75732;-51
2023/04/29 06:15:07;;;;;;;1.80;0.80;;;;;;;10.16;100.00;100592.89;105688;1253;67182;-51
2023/04/29 06:17:34;;;;;;;2.20;0.90;;;;;;;10.26;100.00;100591.38;105759;1254;73300;-52
2023/04/29 06:20:01;;;;;;;2.50;0.80;;;;;;;10.36;100.00;100598.12;105656;1257;60538;-52
2023/04/29 06:22:28;;;;;;;3.00;0.80;;;;;;;10.54;95.87;100587.16;105861;1253;62801;-51
2023/04/29 06:24:55;;;;;;;7.30;1.00;;;;;;;10.68;96.41;100589.17;105700;1257;73728;-52
2023/04/29 06:27:35;;;;;;;2.90;1.00;;;;;;;10.88;80.57;100577.96;105673;1253;66167;-52
2023/04/29 06:30:04;;;;;;;4.70;1.20;;;;;;;10.97;77.87;100586.96;105698;1254;73809;-52
2023/04/29 06:32:31;;;;;;;1.80;0.90;;;;;;;11.03;73.25;100587.54;105757;1259;62562;-52
2023/04/29 06:34:58;;;;;;;5.60;1.60;;;;;;;11.12;72.45;100588.94;105853;1257;61725;-52
2023/04/29 06:37:33;;;;;;;3.10;1.40;;;;;;;11.28;70.18;100587.42;105862;1257;75680;-52
2023/04/29 06:40:12;;;;;;;4.00;2.10;;;;;;;11.39;68.07;100584.80;105880;1253;67655;-52
2023/04/29 06:43:18;;;;;;;2.10;0.80;;;;;;;11.39;68.09;100597.93;105180;1263;75386;-53
2023/04/29 06:45:45;;;;;;;4.60;1.10;;;;;;;11.33;67.27;100599.95;105176;1259;63130;-53
2023/04/29 06:48:21;;;;;;;5.00;1.10;;;;;;;11.13;65.99;100602.22;105449;1257;62106;-52
2023/04/29 06:50:53;;;;;;;3.80;1.20;;;;;;;10.93;66.58;100630.38;105908;1256;77040;-52
2023/04/29 06:53:20;;;;;;;5.50;1.10;;;;;;;10.72;68.93;100646.59;105921;1253;66956;-52
2023/04/29 06:55:47;;;;;;;2.10;0.80;;;;;;;10.63;71.50;100657.78;105682;1253;74681;-52
2023/04/29 06:58:15;;;;;;;5.10;0.90;;;;;;;10.62;71.66;100656.07;105699;1253;62560;-52
2023/04/29 07:00:46;;;;;;;3.70;1.10;;;;;;;10.62;72.08;100665.23;105888;1257;61547;-52
2023/04/29 07:03:14;;;;;;;3.70;1.20;;;;;;;10.58;71.30;100658.89;105683;1257;74888;-52
2023/04/29 07:05:44;;;;;;;3.10;1.00;;;;;;;10.59;72.15;100665.25;105693;1258;65113;-52
2023/04/29 07:08:12;;;;;;;3.70;1.10;;;;;;;10.65;72.78;100668.97;105714;1254;73962;-52
2023/04/29 07:10:40;;;;;;;1.00;0.80;;;;;;;10.70;75.90;100682.19;105842;1257;61531;-53
2023/04/29 07:13:07;;;;;;;3.30;0.90;;;;;;;10.84;76.01;100672.98;105904;1257;61765;-54
2023/04/29 07:15:35;;;;;;;9.00;1.30;;;;;;;10.97;77.99;100672.44;105694;1256;74559;-56
2023/04/29 07:18:04;;;;;;;4.20;1.10;;;;;;;11.14;79.20;100665.75;105667;1253;66809;-53
2023/04/29 07:20:31;;;;;;;4.30;1.00;;;;;;;11.32;72.37;100648.50;105697;1254;74879;-54
2023/04/29 07:22:58;;;;;;;0.60;0.60;;;;;;;11.61;68.52;100637.23;105622;1256;61918;-55
2023/04/29 07:25:26;;;;;;;3.90;1.00;;;;;;;11.94;65.97;100629.67;105667;1253;61293;-54
2023/04/29 07:27:55;;;;;;;4.70;0.70;;;;;;;12.14;62.92;100609.55;105712;1257;75989;-51
2023/04/29 07:30:24;;;;;;;2.30;0.90;;;;;;;12.04;61.31;100615.81;105896;1256;67435;-52
2023/04/29 07:32:51;;;;;;;9.10;0.80;;;;;;;11.91;60.91;100615.73;105841;1254;75570;-52
2023/04/29 07:35:18;;;;;;;1.40;0.70;;;;;;;11.95;62.13;100641.23;105674;1253;62429;-53
2023/04/29 07:37:45;;;;;;;2.20;0.90;;;;;;;12.20;62.04;100634.84;105667;1254;60823;-52
2023/04/29 07:40:12;;;;;;;4.50;0.80;;;;;;;12.49;60.84;100620.70;105629;1258;76265;-52
2023/04/29 07:42:39;;;;;;;5.40;1.00;;;;;;;12.72;59.45;100607.52;105646;1253;66212;-52
2023/04/29 07:45:07;;;;;;;2.80;0.80;;;;;;;12.86;58.72;100607.66;105638;1258;75077;-52
2023/04/29 07:47:34;;;;;;;5.80;0.90;;;;;;;12.99;58.17;100609.59;105716;1259;62902;-54
2023/04/29 07:50:02;;;;;;;4.30;0.80;;;;;;;13.17;57.60;100608.06;105709;1259;61714;-54
2023/04/29 07:52:29;;;;;;;2.30;0.90;;;;;;;13.33;57.05;100605.75;105749;1252;75802;-54
2023/04/29 07:54:56;;;;;;;1.90;1.00;;;;;;;13.52;56.54;100589.98;105472;1253;67107;-57
2023/04/29 07:57:24;;;;;;;5.10;0.70;;;;;;;13.67;56.38;100604.14;105668;1253;74265;-54
2023/04/29 07:59:54;;;;;;;7.80;0.90;;;;;;;13.72;54.31;100548.33;105853;1253;62727;-53
2023/04/29 08:02:22;;;;;;;5.40;1.10;;;;;;;13.65;53.79;100551.13;105686;1257;61216;-52
2023/04/29 08:04:49;;;;;;;1.90;0.90;;;;;;;13.74;55.12;100599.77;105874;1257;76527;-52
2023/04/29 08:07:18;;;;;;;2.30;1.00;;;;;;;14.01;54.01;100561.34;105722;1253;67170;-53
2023/04/29 08:09:45;;;;;;;2.90;0.90;;;;;;;14.17;53.52;100544.52;105680;1255;74413;-52
2023/04/29 08:12:12;;;;;;;2.40;1.00;;;;;;;14.16;53.31;100558.42;105715;1255;62433;-52
2023/04/29 08:14:39;;;;;;;0.80;0.60;;;;;;;14.12;52.19;100511.38;105826;1253;61739;-52
2023/04/29 08:17:07;;;;;;;4.40;1.20;;;;;;;13.95;52.15;100531.66;105646;1259;75342;-52
2023/04/29 08:19:35;;;;;;;0.70;0.60;;;;;;;13.69;52.24;100554.31;105837;1254;66138;-52
2023/04/29 08:22:03;;;;;;;2.60;1.00;;;;;;;13.44;53.13;100591.78;105698;1253;75050;-52
2023/04/29 08:24:32;;;;;;;6.40;1.30;;;;;;;13.30;54.30;100636.00;105677;1254;60806;-52
2023/04/29 08:27:00;;;;;;;3.70;1.50;;;;;;;13.23;54.57;100641.89;105720;1259;61750;-52
2023/04/29 08:29:27;;;;;;;3.70;0.80;;;;;;;13.09;54.53;100646.42;105700;1258;76297;-52
2023/04/29 08:31:54;;;;;;;1.90;1.10;;;;;;;13.03;54.27;100624.58;105657;1255;66195;-51
2023/04/29 08:34:22;;;;;;;3.30;1.40;;;;;;;12.94;54.80;100645.03;105678;1253;74092;-52
2023/04/29 08:36:49;;;;;;;3.90;1.10;;;;;;;12.93;55.12;100645.41;105684;1254;62899;-52
2023/04/29 08:40:19;;;;;;;3.00;1.10;;;;;;;12.90;55.16;100642.56;102604;1292;599624;-52
2023/04/29 08:42:46;;;;;;;1.70;1.10;;;;;;;12.86;57.01;100677.82;105215;1260;61907;-52
2023/04/29 08:45:16;;;;;;;4.50;1.20;;;;;;;13.03;56.80;100662.17;105147;1261;61774;-51
2023/04/29 08:47:43;;;;;;;1.60;1.00;;;;;;;13.10;55.59;100623.70;105061;1267;74806;-52
2023/04/29 08:50:10;;;;;;;2.00;1.50;;;;;;;13.06;55.94;100639.23;105181;1261;65491;-52
2023/04/29 08:52:37;;;;;;;3.40;1.30;;;;;;;13.02;56.83;100652.83;105249;1260;74084;-53
2023/04/29 08:55:04;;;;;;;6.70;1.60;;;;;;;13.01;57.00;100649.91;105320;1262;208149;-52
2023/04/29 08:57:38;;;;;;;3.10;1.20;;;;;;;13.14;57.22;100657.20;105242;1260;60776;-52
2023/04/29 09:00:07;;;;;;;3.80;1.00;;;;;;;13.37;57.37;100653.66;105491;1262;73121;-52
2023/04/29 09:02:38;;;;;;;1.20;0.80;;;;;;;13.43;56.89;100641.89;105504;1260;66562;-52
2023/04/29 09:05:08;;;;;;;6.00;1.10;;;;;;;13.36;56.57;100643.45;105511;1259;76743;-53
2023/04/29 09:07:36;;;;;;;6.90;1.10;;;;;;;13.17;57.03;100667.00;105443;1259;61033;-53
2023/04/29 09:10:04;;;;;;;1.90;1.00;;;;;;;13.00;56.68;100660.50;105418;1263;61762;-51
2023/04/29 09:12:31;;;;;;;3.70;0.50;;;;;;;12.77;56.55;100665.90;105571;1259;74444;-52
2023/04/29 09:14:58;;;;;;;4.40;1.00;;;;;;;12.58;57.70;100682.27;105572;1257;67118;-52
2023/04/29 09:17:45;;;;;;;2.30;1.30;;;;;;;12.56;59.24;100698.25;105415;1259;73639;-52
2023/04/29 09:20:19;;;;;;;6.30;1.00;;;;;;;12.73;60.19;100695.96;105241;1264;61734;-52
2023/04/29 09:22:52;;;;;;;3.90;1.00;;;;;;;12.86;60.24;100680.58;105221;1259;61828;-51
2023/04/29 09:25:20;;;;;;;1.40;0.90;;;;;;;12.88;59.54;100669.63;105274;1259;74897;-51
2023/04/29 09:27:48;;;;;;;0.90;0.80;;;;;;;12.83;59.59;100671.48;105314;1264;66857;-54
2023/04/29 09:30:15;;;;;;;3.40;1.10;;;;;;;12.72;60.34;100674.52;105293;1259;75142;-52
2023/04/29 09:32:44;;;;;;;4.80;0.80;;;;;;;12.66;60.51;100664.08;105289;1259;62566;-52
2023/04/29 09:35:25;;;;;;;2.30;1.00;;;;;;;12.64;61.78;100681.27;105315;1264;61874;-51
2023/04/29 09:37:53;;;;;;;2.40;1.20;;;;;;;12.69;62.06;100670.08;105261;1263;74109;-53
2023/04/29 09:40:30;;;;;;;3.50;2.60;;;;;;;12.76;62.63;100667.33;105301;1261;66758;-52
2023/04/29 09:42:58;;;;;;;4.60;1.10;;;;;;;12.86;62.65;100655.98;105288;1259;75068;-51
2023/04/29 09:45:35;;;;;;;1.70;1.20;;;;;;;12.94;61.87;100638.98;105256;1264;62881;-51
2023/04/29 09:48:06;;;;;;;3.60;1.40;;;;;;;13.07;62.99;100640.76;105280;1259;61624;-51
2023/04/29 09:50:43;;;;;;;6.50;1.10;;;;;;;13.28;62.52;100624.93;105248;1259;74412;-52
2023/04/29 09:53:10;;;;;;;2.00;0.90;;;;;;;13.49;61.35;100605.85;105258;1259;65111;-51
2023/04/29 09:55:57;;;;;;;1.50;1.10;;;;;;;13.65;61.56;100616.34;105270;1262;74168;-52
2023/04/29 09:58:39;;;;;;;4.60;0.80;;;;;;;13.96;60.90;100606.59;105289;1259;62885;-52
2023/04/29 10:01:07;;;;;;;3.10;1.40;;;;;;;14.16;58.67;100565.73;105275;1264;60708;-51
2023/04/29 10:03:35;;;;;;;1.40;1.20;;;;;;;14.21;59.32;100583.44;105264;1259;75535;-52
2023/04/29 10:06:04;;;;;;;2.20;1.00;;;;;;;14.29;59.16;100596.02;105281;1262;67176;-52
2023/04/29 10:08:32;;;;;;;4.60;1.00;;;;;;;14.33;58.10;100580.27;105288;1262;74544;-52
2023/04/29 10:11:01;;;;;;;21.60;1.60;;;;;;;14.31;56.76;100564.40;105200;1259;62625;-52
2023/04/29 10:13:28;;;;;;;1.40;0.90;;;;;;;14.23;56.63;100570.18;105295;1259;62842;-52
2023/04/29 10:15:58;;;;;;;2.70;2.50;;;;;;;14.12;56.20;100566.71;105262;1264;74653;-52
2023/04/29 10:18:30;;;;;;;3.00;1.60;;;;;;;13.97;56.90;100589.91;105226;1259;66158;-52
2023/04/29 10:20:57;;;;;;;5.00;1.50;;;;;;;13.87;58.14;100617.10;105310;1260;75277;-52
2023/04/29 10:23:24;;;;;;;5.90;1.50;;;;;;;13.86;58.38;100621.45;105264;1267;62695;-52
2023/04/29 10:25:51;;;;;;;3.40;0.90;;;;;;;13.84;58.58;100614.39;105227;1264;61746;-52
2023/04/29 10:28:19;;;;;;;3.60;1.70;;;;;;;13.78;59.06;100622.90;105216;1264;74572;-52
2023/04/29 10:30:50;;;;;;;5.70;0.90;;;;;;;13.77;59.80;100626.91;105291;1264;66975;-53
2023/04/29 10:33:17;;;;;;;6.20;0.80;;;;;;;13.78;59.07;100615.09;105244;1264;73297;-53
2023/04/29 10:35:44;;;;;;;1.50;0.80;;;;;;;13.73;58.59;100608.65;105186;1261;61507;-53
2023/04/29 10:38:23;;;;;;;8.80;1.30;;;;;;;13.70;59.34;100619.48;105251;1259;62787;-51
2023/04/29 10:40:50;;;;;;;2.50;0.90;;;;;;;13.67;59.13;100612.46;105248;1264;74150;-53
2023/04/29 10:43:22;;;;;;;7.60;1.00;;;;;;;13.66;59.83;100619.24;105279;1259;65947;-52
2023/04/29 10:45:49;;;;;;;2.40;0.80;;;;;;;13.70;60.40;100620.36;105294;1259;75005;-51
2023/04/29 10:48:20;;;;;;;4.60;0.80;;;;;;;13.69;60.01;100618.66;105218;1259;62567;-53
2023/04/29 10:50:47;;;;;;;2.80;0.70;;;;;;;13.67;60.17;100610.05;105300;1259;61639;-52
2023/04/29 10:53:14;;;;;;;7.80;4.90;;;;;;;13.68;60.65;100612.08;105292;1264;75498;-52
2023/04/29 10:55:41;;;;;;;4.90;1.10;;;;;;;13.75;60.79;100606.52;105328;1259;65860;-53
2023/04/29 10:58:37;;;;;;;3.30;0.90;;;;;;;13.84;60.31;100592.05;105209;1260;74562;-58
2023/04/29 11:01:04;;;;;;;2.50;0.70;;;;;;;13.92;60.22;100585.38;105092;1259;62871;-55
2023/04/29 11:03:57;;;;;;;10.70;3.00;;;;;;;13.99;59.83;100584.80;104912;1264;62207;-54
2023/04/29 11:06:46;;;;;;;4.70;1.50;;;;;;;14.03;58.59;100576.54;105205;1259;75476;-54
2023/04/29 11:09:23;;;;;;;2.40;2.20;;;;;;;14.03;58.47;100582.77;105417;1256;65591;-58
2023/04/29 11:12:07;;;;;;;11.90;4.20;;;;;;;14.05;58.02;100574.73;105620;1260;75001;-55
2023/04/29 11:14:42;;;;;;;4.60;2.70;;;;;;;14.05;57.88;100569.70;105438;1263;62162;-53
2023/04/29 11:17:14;;;;;;;10.10;4.30;;;;;;;14.03;56.93;100553.98;105633;1256;60623;-53
2023/04/29 11:19:45;;;;;;;3.80;2.20;;;;;;;13.94;56.89;100554.45;105598;1256;75939;-53
2023/04/29 11:22:20;;;;;;;4.00;1.60;;;;;;;13.91;57.18;100565.97;105567;1256;66633;-52
2023/04/29 11:24:52;;;;;;;2.50;1.10;;;;;;;13.94;57.77;100572.45;105566;1256;74438;-51
2023/04/29 11:27:24;;;;;;;7.60;2.60;;;;;;;14.03;56.34;100535.23;105618;1259;61530;-52
2023/04/29 11:29:57;;;;;;;4.00;1.30;;;;;;;14.13;56.42;100530.77;105590;1260;62171;-52
2023/04/29 11:32:31;;;;;;;6.50;1.60;;;;;;;14.21;55.70;100511.41;105613;1256;74439;-52
2023/04/29 11:35:12;;;;;;;2.90;2.10;;;;;;;14.21;55.90;100518.69;105624;1256;65971;-53